createdAt,value
2023-04-20T00:02:37.261Z,25.98
2023-04-20T00:05:13.958Z,23.30
2023-04-20T00:07:48.565Z,22.43
2023-04-20T00:10:27.884Z,25.13
2023-04-20T00:13:05.082Z,26.48
2023-04-20T00:15:43.666Z,22.80
2023-04-20T00:18:23.861Z,25.85
2023-04-20T00:21:03.978Z,24.00
2023-04-20T00:23:46.083Z,27.58
2023-04-20T00:26:27.135Z,32.20
2023-04-20T00:29:04.576Z,24.48
2023-04-20T00:31:45.985Z,28.42
2023-04-20T00:34:27.631Z,26.63
2023-04-20T00:37:05.278Z,23.15
2023-04-20T00:39:41.572Z,27.45
2023-04-20T00:42:17.726Z,26.27
2023-04-20T00:44:53.998Z,26.90
2023-04-20T00:47:36.219Z,29.02
2023-04-20T00:50:17.136Z,31.80
2023-04-20T00:52:54.524Z,31.45
2023-04-20T00:55:30.779Z,32.40
2023-04-20T00:58:15.586Z,29.75
2023-04-20T01:00:50.953Z,31.63
2023-04-20T01:03:26.726Z,27.77
2023-04-20T01:06:13.064Z,32.33
2023-04-20T01:08:52.225Z,30.55
2023-04-20T01:11:32.198Z,30.23
2023-04-20T01:14:17.432Z,29.13
2023-04-20T01:16:54.268Z,29.85
2023-04-20T01:19:33.550Z,29.92
2023-04-20T01:22:22.389Z,25.10
2023-04-20T01:24:59.981Z,30.95
2023-04-20T01:27:37.476Z,31.67
2023-04-20T01:30:16.080Z,26.70
2023-04-20T01:32:52.786Z,28.23
2023-04-20T01:35:31.475Z,27.05
2023-04-20T01:38:10.308Z,24.23
2023-04-20T01:40:45.938Z,28.15
2023-04-20T01:43:24.210Z,27.02
2023-04-20T01:46:05.293Z,25.88
2023-04-20T01:48:57.927Z,26.23
2023-04-20T01:51:34.447Z,26.60
2023-04-20T01:54:13.223Z,28.02
2023-04-20T01:56:52.030Z,28.00
2023-04-20T01:59:28.285Z,24.27
2023-04-20T02:02:06.551Z,26.50
2023-04-20T02:04:42.501Z,27.08
2023-04-20T02:07:18.563Z,27.92
2023-04-20T02:09:57.884Z,24.73
2023-04-20T02:12:33.322Z,26.55
2023-04-20T02:15:10.633Z,25.90
2023-04-20T02:17:53.364Z,25.23
2023-04-20T02:20:30.989Z,27.57
2023-04-20T02:23:08.186Z,26.45
2023-04-20T02:25:49.208Z,26.15
2023-04-20T02:28:28.059Z,26.50
2023-04-20T02:31:03.214Z,25.00
2023-04-20T02:33:39.443Z,27.20
2023-04-20T02:36:14.911Z,27.02
2023-04-20T02:38:56.692Z,21.45
2023-04-20T02:41:38.746Z,24.00
2023-04-20T02:44:14.616Z,24.33
2023-04-20T02:46:55.641Z,26.63
2023-04-20T02:49:44.501Z,26.80
2023-04-20T02:52:29.317Z,27.48
2023-04-20T02:55:17.158Z,28.55
2023-04-20T02:58:04.395Z,29.92
2023-04-20T03:01:05.165Z,26.95
2023-04-20T03:03:42.834Z,28.90
2023-04-20T03:06:22.292Z,28.80
2023-04-20T03:09:04.427Z,31.52
2023-04-20T03:12:03.266Z,27.13
2023-04-20T03:15:04.470Z,23.83
2023-04-20T03:17:54.873Z,25.20
2023-04-20T03:20:36.149Z,27.38
2023-04-20T03:23:12.722Z,28.17
2023-04-20T03:25:55.211Z,28.95
2023-04-20T03:28:42.870Z,29.63
2023-04-20T03:31:27.053Z,28.90
2023-04-20T03:34:06.738Z,30.15
2023-04-20T03:36:42.698Z,28.20
2023-04-20T03:39:30.082Z,27.50
2023-04-20T03:42:06.647Z,24.10
2023-04-20T03:44:47.813Z,28.63
2023-04-20T03:47:32.990Z,26.42
2023-04-20T03:50:13.529Z,26.92
2023-04-20T03:52:50.063Z,26.40
2023-04-20T03:55:27.540Z,24.60
2023-04-20T03:58:11.791Z,23.20
2023-04-20T04:01:04.595Z,26.50
2023-04-20T04:03:48.239Z,29.40
2023-04-20T04:06:28.831Z,30.40
2023-04-20T04:09:09.080Z,31.40
2023-04-20T04:11:49.618Z,31.27
2023-04-20T04:14:27.615Z,29.30
2023-04-20T04:17:08.489Z,32.65
2023-04-20T04:20:00.521Z,29.17
2023-04-20T04:22:39.220Z,31.37
2023-04-20T04:25:36.085Z,31.07
2023-04-20T04:28:14.339Z,28.73
2023-04-20T04:33:41.916Z,34.08
2023-04-20T04:36:22.454Z,29.02
2023-04-20T04:38:59.624Z,32.60
2023-04-20T04:41:38.669Z,32.07
2023-04-20T04:44:32.972Z,34.10
2023-04-20T04:47:32.032Z,35.42
2023-04-20T04:50:17.866Z,31.60
2023-04-20T04:52:57.940Z,32.00
2023-04-20T04:55:36.687Z,30.20
2023-04-20T04:58:14.128Z,30.80
2023-04-20T05:00:53.087Z,31.30
2023-04-20T05:03:34.230Z,31.23
2023-04-20T05:06:11.653Z,32.42
2023-04-20T05:08:50.939Z,32.75
2023-04-20T05:11:32.283Z,35.60
2023-04-20T05:14:08.127Z,35.38
2023-04-20T05:16:47.093Z,32.30
2023-04-20T05:19:24.761Z,33.28
2023-04-20T05:22:02.207Z,35.37
2023-04-20T05:24:40.813Z,37.70
2023-04-20T05:27:16.706Z,46.35
2023-04-20T05:29:51.993Z,41.70
2023-04-20T05:32:31.601Z,41.87
2023-04-20T05:35:05.805Z,42.33
2023-04-20T05:37:49.592Z,43.60
2023-04-20T05:40:34.370Z,43.90
2023-04-20T05:43:10.936Z,45.70
2023-04-20T05:45:47.577Z,45.88
2023-04-20T05:48:23.939Z,43.47
2023-04-20T05:51:01.777Z,46.95
2023-04-20T05:53:36.955Z,54.60
2023-04-20T05:56:31.649Z,46.90
2023-04-20T05:59:11.571Z,45.92
2023-04-20T06:01:51.701Z,47.20
2023-04-20T06:04:31.600Z,49.95
2023-04-20T06:07:12.099Z,52.50
2023-04-20T06:09:46.745Z,49.83
2023-04-20T06:12:26.283Z,48.23
2023-04-20T06:15:06.849Z,48.90
2023-04-20T06:17:45.634Z,46.42
2023-04-20T06:20:23.278Z,49.83
2023-04-20T06:22:59.532Z,47.10
2023-04-20T06:25:48.564Z,44.35
2023-04-20T06:28:27.344Z,48.10
2023-04-20T06:31:07.988Z,50.95
2023-04-20T06:33:45.559Z,50.38
2023-04-20T06:36:22.354Z,46.83
2023-04-20T06:41:35.712Z,50.78
2023-04-20T06:44:19.536Z,45.83
2023-04-20T06:46:59.541Z,40.20
2023-04-20T06:49:39.724Z,47.63
2023-04-20T06:52:18.954Z,47.83
2023-04-20T06:54:53.963Z,46.15
2023-04-20T06:57:30.609Z,38.77
2023-04-20T07:00:11.342Z,42.33
2023-04-20T07:02:51.058Z,46.30
2023-04-20T07:05:29.225Z,48.60
2023-04-20T07:08:05.011Z,50.47
2023-04-20T07:10:41.966Z,51.30
2023-04-20T07:13:18.007Z,45.60
2023-04-20T07:15:56.168Z,41.08
2023-04-20T07:18:31.925Z,45.75
2023-04-20T07:21:15.196Z,46.90
2023-04-20T07:23:56.676Z,43.70
2023-04-20T07:26:35.736Z,30.85
2023-04-20T07:29:57.006Z,40.28
2023-04-20T07:32:41.822Z,45.40
2023-04-20T07:35:18.462Z,48.20
2023-04-20T07:37:57.224Z,45.28
2023-04-20T07:40:39.608Z,45.50
2023-04-20T07:43:16.337Z,48.72
2023-04-20T07:45:53.404Z,46.90
2023-04-20T07:48:33.710Z,51.67
2023-04-20T07:51:12.202Z,46.77
2023-04-20T07:53:52.453Z,47.45
2023-04-20T07:56:29.262Z,47.45
2023-04-20T07:59:09.085Z,49.50
2023-04-20T08:01:46.869Z,46.92
2023-04-20T08:04:22.912Z,47.28
2023-04-20T08:07:00.236Z,48.78
2023-04-20T08:09:34.736Z,45.50
2023-04-20T08:12:14.108Z,43.50
2023-04-20T08:14:51.960Z,43.13
2023-04-20T08:17:26.645Z,45.67
2023-04-20T08:20:06.510Z,47.95
2023-04-20T08:22:45.789Z,48.95
2023-04-20T08:25:24.233Z,49.85
2023-04-20T08:27:59.565Z,45.70
2023-04-20T08:30:40.747Z,44.45
2023-04-20T08:33:18.950Z,42.65
2023-04-20T08:35:54.900Z,43.63
2023-04-20T08:38:34.141Z,43.20
2023-04-20T08:41:12.293Z,44.20
2023-04-20T08:43:48.957Z,40.22
2023-04-20T08:46:29.863Z,47.55
2023-04-20T08:49:05.290Z,48.65
2023-04-20T08:51:43.564Z,54.35
2023-04-20T08:54:19.470Z,45.65
2023-04-20T08:57:03.094Z,45.30
2023-04-20T08:59:42.839Z,43.33
2023-04-20T09:02:19.713Z,43.57
2023-04-20T09:05:05.657Z,43.53
2023-04-20T09:07:45.691Z,38.15
2023-04-20T09:10:25.812Z,45.67
2023-04-20T09:13:04.666Z,44.50
2023-04-20T09:15:42.204Z,45.40
2023-04-20T09:18:19.321Z,41.08
2023-04-20T09:20:58.254Z,41.30
2023-04-20T09:23:33.811Z,40.50
2023-04-20T09:26:12.265Z,43.95
2023-04-20T09:28:47.847Z,41.35
2023-04-20T09:31:23.460Z,39.97
2023-04-20T09:34:06.185Z,38.60
2023-04-20T09:36:46.440Z,40.95
2023-04-20T09:39:22.495Z,44.00
2023-04-20T09:44:39.721Z,39.13
2023-04-20T09:47:21.175Z,33.50
2023-04-20T09:49:57.310Z,36.53
2023-04-20T09:52:39.494Z,35.08
2023-04-20T09:55:20.297Z,36.60
2023-04-20T09:57:56.987Z,33.83
2023-04-20T10:00:38.591Z,36.80
2023-04-20T10:03:14.169Z,36.60
2023-04-20T10:06:00.559Z,40.20
2023-04-20T10:08:50.479Z,34.95
2023-04-20T10:11:40.407Z,36.33
2023-04-20T10:14:23.568Z,39.92
2023-04-20T10:17:07.982Z,36.03
2023-04-20T10:19:45.602Z,31.25
2023-04-20T10:22:33.495Z,34.97
2023-04-20T10:25:22.809Z,32.80
2023-04-20T10:28:00.680Z,35.72
2023-04-20T10:30:36.904Z,34.90
2023-04-20T10:33:15.771Z,33.20
2023-04-20T10:35:56.155Z,34.25
2023-04-20T10:38:31.300Z,30.50
2023-04-20T10:41:17.930Z,30.75
2023-04-20T10:43:58.705Z,30.80
2023-04-20T10:46:39.801Z,32.90
2023-04-20T10:49:18.431Z,32.20
2023-04-20T10:51:58.912Z,32.75
2023-04-20T10:54:43.319Z,35.38
2023-04-20T10:57:24.602Z,33.77
2023-04-20T11:00:02.905Z,29.85
2023-04-20T11:02:38.432Z,32.13
2023-04-20T11:05:18.545Z,31.52
2023-04-20T11:07:57.376Z,36.80
2023-04-20T11:10:41.495Z,30.45
2023-04-20T11:13:30.229Z,32.70
2023-04-20T11:16:17.524Z,32.50
2023-04-20T11:18:54.301Z,37.40
2023-04-20T11:21:40.235Z,32.28
2023-04-20T11:24:28.184Z,31.40
2023-04-20T11:27:05.630Z,35.45
2023-04-20T11:29:44.092Z,29.17
2023-04-20T11:32:24.124Z,37.00
2023-04-20T11:35:06.969Z,30.05
2023-04-20T11:37:51.832Z,30.85
2023-04-20T11:40:30.308Z,30.27
2023-04-20T11:43:11.453Z,31.63
2023-04-20T11:45:56.041Z,29.40
2023-04-20T11:48:34.890Z,31.35
2023-04-20T11:51:13.607Z,36.17
2023-04-20T11:53:49.995Z,29.05
2023-04-20T11:56:28.914Z,32.80
2023-04-20T11:59:03.687Z,29.73
2023-04-20T12:01:45.147Z,33.65
2023-04-20T12:04:25.989Z,33.25
2023-04-20T12:07:00.764Z,32.35
2023-04-20T12:09:39.485Z,32.60
2023-04-20T12:12:16.003Z,34.70
2023-04-20T12:14:52.710Z,31.63
2023-04-20T12:17:32.644Z,32.05
2023-04-20T12:20:12.638Z,30.15
2023-04-20T12:22:51.164Z,28.17
2023-04-20T12:25:26.710Z,33.78
2023-04-20T12:28:07.440Z,27.20
2023-04-20T12:30:46.637Z,23.92
2023-04-20T12:33:26.291Z,22.83
2023-04-20T12:36:02.949Z,23.25
2023-04-20T12:38:40.539Z,23.85
2023-04-20T12:41:18.957Z,22.25
2023-04-20T12:43:56.626Z,25.05
2023-04-20T12:46:32.910Z,23.90
2023-04-20T12:49:14.804Z,25.70
2023-04-20T12:51:50.543Z,29.27
2023-04-20T12:54:26.473Z,25.48
2023-04-20T12:57:05.348Z,25.20
2023-04-20T12:59:43.652Z,27.40
2023-04-20T13:02:23.442Z,24.95
2023-04-20T13:05:11.696Z,27.02
2023-04-20T13:07:47.026Z,25.08
2023-04-20T13:10:24.750Z,23.17
2023-04-20T13:13:04.892Z,22.77
2023-04-20T13:15:41.752Z,20.83
2023-04-20T13:18:20.632Z,23.35
2023-04-20T13:20:59.519Z,21.43
2023-04-20T13:23:36.446Z,24.05
2023-04-20T13:26:13.501Z,27.48
2023-04-20T13:28:49.541Z,28.33
2023-04-20T13:31:26.795Z,25.45
2023-04-20T13:34:03.418Z,28.55
2023-04-20T13:36:45.551Z,24.58
2023-04-20T13:39:22.925Z,24.90
2023-04-20T13:42:00.489Z,24.10
2023-04-20T13:44:37.284Z,25.70
2023-04-20T13:47:16.311Z,21.67
2023-04-20T13:49:58.501Z,17.80
2023-04-20T13:52:42.936Z,16.67
2023-04-20T13:55:26.830Z,12.40
2023-04-20T13:58:05.569Z,19.98
2023-04-20T14:00:42.109Z,14.48
2023-04-20T14:03:22.536Z,15.82
2023-04-20T14:06:00.574Z,10.82
2023-04-20T14:08:44.317Z,14.55
2023-04-20T14:11:20.548Z,16.47
2023-04-20T14:14:03.494Z,16.20
2023-04-20T14:16:48.159Z,13.95
2023-04-20T14:19:26.302Z,11.48
2023-04-20T14:22:02.463Z,13.90
2023-04-20T14:24:42.496Z,14.18
2023-04-20T14:27:18.523Z,12.45
2023-04-20T14:29:55.072Z,12.77
2023-04-20T14:32:32.746Z,12.10
2023-04-20T14:35:10.130Z,13.82
2023-04-20T14:37:47.632Z,16.50
2023-04-20T14:40:21.845Z,21.00
2023-04-20T14:43:00.308Z,13.23
2023-04-20T14:45:37.401Z,17.40
2023-04-20T14:48:18.170Z,9.45
2023-04-20T14:50:55.812Z,13.03
2023-04-20T14:53:33.169Z,15.50
2023-04-20T14:56:12.663Z,14.10
2023-04-20T14:58:54.765Z,13.60
2023-04-20T15:01:29.774Z,11.90
2023-04-20T15:04:06.155Z,16.20
2023-04-20T15:06:44.910Z,16.77
2023-04-20T15:09:22.666Z,12.25
2023-04-20T15:12:00.486Z,12.32
2023-04-20T15:14:34.689Z,16.60
2023-04-20T15:17:14.317Z,12.57
2023-04-20T15:19:52.527Z,14.73
2023-04-20T15:22:29.118Z,11.75
2023-04-20T15:25:04.242Z,10.02
2023-04-20T15:27:38.963Z,6.55
2023-04-20T15:30:16.793Z,9.15
2023-04-20T15:33:04.696Z,11.57
2023-04-20T15:35:44.480Z,13.40
2023-04-20T15:38:20.924Z,13.45
2023-04-20T15:40:59.142Z,11.20
2023-04-20T15:43:37.220Z,11.93
2023-04-20T15:46:13.364Z,15.25
2023-04-20T15:48:52.186Z,10.40
2023-04-20T15:51:29.870Z,14.93
2023-04-20T15:54:04.288Z,8.15
2023-04-20T15:56:42.253Z,72.60
2023-04-20T15:59:16.533Z,48.80
2023-04-20T16:04:51.874Z,18.20
2023-04-20T16:16:30.108Z,22.45
2023-04-20T16:19:09.230Z,17.55
2023-04-20T16:21:49.827Z,26.90
2023-04-20T16:24:27.324Z,16.98
2023-04-20T16:27:03.358Z,25.55
2023-04-20T16:29:40.860Z,26.00
2023-04-20T16:32:22.512Z,34.67
2023-04-20T16:35:00.513Z,21.35
2023-04-20T16:37:42.060Z,15.67
2023-04-20T16:40:19.929Z,17.85
2023-04-20T16:42:58.384Z,29.65
2023-04-20T16:45:36.508Z,17.50
2023-04-20T16:48:20.198Z,19.95
2023-04-20T16:51:01.492Z,16.48
2023-04-20T16:53:45.718Z,21.48
2023-04-20T16:56:33.488Z,12.15
2023-04-20T16:59:08.585Z,16.70
2023-04-20T17:01:46.787Z,19.40
2023-04-20T17:04:26.329Z,18.85
2023-04-20T17:19:38.115Z,11.55
2023-04-20T17:28:29.728Z,11.68
2023-04-20T17:34:08.828Z,14.63
2023-04-20T17:36:51.847Z,9.77
2023-04-20T17:39:29.102Z,13.20
2023-04-20T17:42:10.581Z,14.90
2023-04-20T17:44:48.880Z,15.68
2023-04-20T17:47:28.861Z,18.60
2023-04-20T17:50:08.089Z,10.57
2023-04-20T17:52:50.130Z,13.30
2023-04-20T17:55:31.726Z,19.35
2023-04-20T17:58:10.110Z,9.45
2023-04-20T18:00:46.077Z,20.65
2023-04-20T18:03:23.333Z,15.27
2023-04-20T18:06:04.161Z,16.15
2023-04-20T18:08:39.634Z,11.82
2023-04-20T18:11:19.484Z,11.95
2023-04-20T18:13:56.121Z,12.25
2023-04-20T18:16:33.887Z,13.45
2023-04-20T18:19:11.939Z,12.63
2023-04-20T18:21:48.620Z,15.52
2023-04-20T18:24:27.510Z,19.10
2023-04-20T18:27:06.744Z,13.65
2023-04-20T18:29:43.918Z,15.95
2023-04-20T18:32:20.675Z,19.80
2023-04-20T18:34:59.577Z,36.17
2023-04-20T18:37:45.002Z,37.20
2023-04-20T18:40:22.407Z,39.28
2023-04-20T18:43:06.651Z,28.65
2023-04-20T18:45:44.591Z,27.60
2023-04-20T18:48:21.817Z,31.85
2023-04-20T18:51:02.829Z,27.33
2023-04-20T18:53:42.147Z,25.10
2023-04-20T18:56:22.649Z,19.48
2023-04-20T18:59:04.469Z,19.73
2023-04-20T19:01:43.750Z,19.10
2023-04-20T19:04:20.463Z,22.65
2023-04-20T19:06:59.082Z,14.20
2023-04-20T19:09:49.058Z,22.20
2023-04-20T19:12:23.563Z,15.63
2023-04-20T19:15:06.415Z,18.77
2023-04-20T19:17:44.054Z,17.17
2023-04-20T19:20:20.767Z,20.10
2023-04-20T19:22:59.655Z,26.52
2023-04-20T19:25:38.579Z,26.45
2023-04-20T19:28:14.540Z,28.27
2023-04-20T19:30:55.221Z,25.93
2023-04-20T19:33:32.594Z,27.67
2023-04-20T19:36:13.376Z,35.23
2023-04-20T19:38:50.908Z,40.80
2023-04-20T19:41:28.964Z,46.35
2023-04-20T19:44:10.459Z,35.05
2023-04-20T19:46:54.552Z,28.95
2023-04-20T19:49:31.492Z,29.98
2023-04-20T19:52:08.135Z,31.25
2023-04-20T19:54:44.116Z,29.90
2023-04-20T19:59:59.619Z,35.10
2023-04-20T20:02:36.946Z,25.13
2023-04-20T20:05:17.368Z,25.25
2023-04-20T20:08:02.592Z,30.05
2023-04-20T20:10:40.990Z,28.02
2023-04-20T20:13:19.553Z,21.90
2023-04-20T20:16:01.002Z,29.73
2023-04-20T20:18:36.513Z,30.75
2023-04-20T20:21:20.348Z,24.73
2023-04-20T20:23:54.724Z,35.00
2023-04-20T20:26:38.604Z,29.20
2023-04-20T20:29:16.910Z,21.27
2023-04-20T20:31:52.580Z,33.97
2023-04-20T20:34:29.336Z,38.03
2023-04-20T20:37:10.876Z,34.55
2023-04-20T20:39:48.995Z,31.27
2023-04-20T20:42:32.232Z,34.80
2023-04-20T20:45:13.624Z,39.15
2023-04-20T20:47:52.681Z,46.67
2023-04-20T20:50:28.919Z,51.20
2023-04-20T20:53:09.940Z,49.65
2023-04-20T20:55:48.412Z,39.30
2023-04-20T20:58:27.425Z,39.75
2023-04-20T21:01:08.185Z,34.08
2023-04-20T21:03:44.797Z,52.35
2023-04-20T21:06:22.707Z,52.95
2023-04-20T21:09:02.801Z,53.95
2023-04-20T21:11:34.788Z,60.80
2023-04-20T21:14:18.786Z,64.33
2023-04-20T21:17:00.684Z,66.75
2023-04-20T21:19:40.385Z,76.65
2023-04-20T21:22:22.157Z,80.95
2023-04-20T21:25:08.131Z,82.25
2023-04-20T21:27:48.821Z,80.70
2023-04-20T21:30:31.221Z,80.50
2023-04-20T21:33:11.612Z,73.10
2023-04-20T21:35:57.662Z,71.43
2023-04-20T21:38:36.750Z,68.37
2023-04-20T21:41:18.241Z,68.05
2023-04-20T21:43:56.500Z,63.88
2023-04-20T21:46:34.225Z,67.68
2023-04-20T21:49:09.475Z,64.22
2023-04-20T21:51:44.991Z,65.47
2023-04-20T21:54:21.020Z,71.05
2023-04-20T21:59:35.277Z,70.28
2023-04-20T22:02:10.556Z,68.00
2023-04-20T22:04:46.258Z,62.28
2023-04-20T22:07:24.356Z,57.45
2023-04-20T22:10:00.465Z,60.67
2023-04-20T22:15:28.062Z,52.97
2023-04-20T22:18:04.500Z,47.55
2023-04-20T22:20:44.476Z,41.75
2023-04-20T22:23:22.641Z,42.85
2023-04-20T22:25:58.461Z,44.55
2023-04-20T22:28:39.639Z,50.35
2023-04-20T22:31:18.160Z,46.80
2023-04-20T22:33:55.712Z,39.80
2023-04-20T22:36:29.813Z,36.15
2023-04-20T22:39:06.119Z,38.58
2023-04-20T22:41:43.616Z,34.40
2023-04-20T22:44:25.416Z,33.35
2023-04-20T22:47:01.584Z,30.58
2023-04-20T22:49:38.791Z,26.60
2023-04-20T22:52:15.949Z,33.75
2023-04-20T22:54:53.042Z,27.15
2023-04-20T22:57:31.947Z,27.20
2023-04-20T23:00:14.818Z,29.80
2023-04-20T23:02:51.033Z,29.85
2023-04-20T23:05:30.255Z,25.27
2023-04-20T23:08:04.767Z,27.35
2023-04-20T23:10:43.444Z,23.80
2023-04-20T23:13:20.232Z,30.42
2023-04-20T23:15:59.829Z,31.00
2023-04-20T23:18:35.533Z,26.45
2023-04-20T23:21:13.528Z,31.90
2023-04-20T23:23:50.212Z,28.43
2023-04-20T23:26:26.188Z,33.40
2023-04-20T23:31:41.985Z,28.30
2023-04-20T23:34:15.583Z,32.20
2023-04-20T23:36:54.414Z,26.60
2023-04-20T23:39:35.333Z,32.20
2023-04-20T23:42:14.218Z,35.33
2023-04-20T23:44:51.803Z,24.65
2023-04-20T23:47:32.927Z,24.27
2023-04-20T23:50:09.509Z,32.88
2023-04-20T23:52:45.042Z,24.52
2023-04-20T23:55:22.774Z,25.67
2023-04-20T23:57:56.504Z,20.52
